Weather at Belgrade Nikola Tesla Airport

Public forecast

Using degrees Celsius for public forecast. Weather courtesy of forecast.io.

Current aviation weather report (METAR) for Belgrade Nikola Tesla Airport

Retrieved 2022/05/21 00:00 UTC (12 minutes ago):

LYBE 210000Z 18005KT CAVOK 16/07 Q1018 NOSIG

Aviation forecast (TAF) for Belgrade Nikola Tesla Airport

Retrieved 2022-05-21 00:22 UTC (0 seconds ago):

TAF LYBE 202300Z 2100/2124 18005KT CAVOK TX30/2114Z TN14/2103Z BECMG 2110/2112 33010KT BECMG 2121/2123 27006KT TEMPO 2122/2124 5000 SHRA SCT040TCU SCT045